createdAt,value
2022-12-18T00:01:49.324Z,11.10
2022-12-18T00:04:22.373Z,8.13
2022-12-18T00:07:10.435Z,8.80
2022-12-18T00:09:40.845Z,8.43
2022-12-18T00:14:48.877Z,11.90
2022-12-18T00:17:20.009Z,10.30
2022-12-18T00:19:50.982Z,12.03
2022-12-18T00:22:19.002Z,9.43
2022-12-18T00:24:56.006Z,12.53
2022-12-18T00:27:27.917Z,10.63
2022-12-18T00:30:00.937Z,10.20
2022-12-18T00:32:30.188Z,10.97
2022-12-18T00:35:07.170Z,10.50
2022-12-18T00:37:38.238Z,10.50
2022-12-18T00:40:13.751Z,8.77
2022-12-18T00:43:00.224Z,8.87
2022-12-18T00:45:32.576Z,10.43
2022-12-18T00:48:02.353Z,10.30
2022-12-18T00:50:33.451Z,10.50
2022-12-18T00:53:24.257Z,8.20
2022-12-18T00:55:54.642Z,11.33
2022-12-18T00:58:39.240Z,12.07
2022-12-18T01:01:13.744Z,13.13
2022-12-18T01:03:46.176Z,14.23
2022-12-18T01:06:17.362Z,14.40
2022-12-18T01:08:46.075Z,12.73
2022-12-18T01:11:24.779Z,12.13
2022-12-18T01:14:00.712Z,14.83
2022-12-18T01:16:37.680Z,18.57
2022-12-18T01:19:15.589Z,13.80
2022-12-18T01:21:56.735Z,17.83
2022-12-18T01:24:28.392Z,20.07
2022-12-18T01:26:59.433Z,15.37
2022-12-18T01:29:35.763Z,16.43
2022-12-18T01:32:05.096Z,19.70
2022-12-18T01:34:39.409Z,22.63
2022-12-18T01:37:28.845Z,21.20
2022-12-18T01:39:59.522Z,18.50
2022-12-18T01:42:30.235Z,24.50
2022-12-18T01:45:17.051Z,21.10
2022-12-18T01:48:09.891Z,20.70
2022-12-18T01:50:46.207Z,20.87
2022-12-18T01:53:24.840Z,23.93
2022-12-18T01:56:00.247Z,21.03
2022-12-18T01:58:44.812Z,20.97
2022-12-18T02:01:17.097Z,25.67
2022-12-18T02:03:49.753Z,17.40
2022-12-18T02:06:26.266Z,29.13
2022-12-18T02:12:23.025Z,21.43
2022-12-18T02:15:02.973Z,22.37
2022-12-18T02:17:44.518Z,22.87
2022-12-18T02:20:23.747Z,26.83
2022-12-18T02:23:08.640Z,24.20
2022-12-18T02:26:16.841Z,23.77
2022-12-18T02:28:56.166Z,27.47
2022-12-18T02:31:37.391Z,23.53
2022-12-18T02:34:14.928Z,24.13
2022-12-18T02:36:57.149Z,23.20
2022-12-18T02:39:27.709Z,23.67
2022-12-18T02:42:11.715Z,27.67
2022-12-18T02:44:52.911Z,20.83
2022-12-18T02:47:31.680Z,22.63
2022-12-18T02:50:09.141Z,23.40
2022-12-18T02:52:49.663Z,25.87
2022-12-18T02:55:40.795Z,25.73
2022-12-18T02:58:21.087Z,33.63
2022-12-18T03:01:03.546Z,22.73
2022-12-18T03:03:41.371Z,24.67
2022-12-18T03:06:25.867Z,30.43
2022-12-18T03:09:05.781Z,25.20
2022-12-18T03:11:56.629Z,23.90
2022-12-18T03:14:38.315Z,20.60
2022-12-18T03:17:12.717Z,24.73
2022-12-18T03:19:44.178Z,27.47
2022-12-18T03:22:12.598Z,22.77
2022-12-18T03:25:04.141Z,25.00
2022-12-18T03:27:43.338Z,27.30
2022-12-18T03:30:20.949Z,25.70
2022-12-18T03:33:05.312Z,24.10
2022-12-18T03:35:39.933Z,23.13
2022-12-18T03:38:10.959Z,28.53
2022-12-18T03:40:52.654Z,26.30
2022-12-18T03:43:33.022Z,29.77
2022-12-18T03:46:06.151Z,27.20
2022-12-18T03:48:45.818Z,27.60
2022-12-18T03:51:28.216Z,23.60
2022-12-18T03:54:00.335Z,25.20
2022-12-18T03:56:41.553Z,22.77
2022-12-18T03:59:11.442Z,25.70
2022-12-18T04:01:47.942Z,27.53
2022-12-18T04:04:26.651Z,32.30
2022-12-18T04:07:01.146Z,26.90
2022-12-18T04:09:40.176Z,25.07
2022-12-18T04:12:15.120Z,22.43
2022-12-18T04:14:55.190Z,23.13
2022-12-18T04:17:27.758Z,23.17
2022-12-18T04:20:12.814Z,29.33
2022-12-18T04:22:45.189Z,24.70
2022-12-18T04:25:16.946Z,24.70
2022-12-18T04:28:07.715Z,25.30
2022-12-18T04:30:40.614Z,23.00
2022-12-18T04:33:14.602Z,26.37
2022-12-18T04:36:03.501Z,25.57
2022-12-18T04:38:32.622Z,27.23
2022-12-18T04:41:13.790Z,24.90
2022-12-18T04:43:46.182Z,30.00
2022-12-18T04:46:16.573Z,22.43
2022-12-18T04:48:58.690Z,24.20
2022-12-18T04:51:33.879Z,28.13
2022-12-18T04:54:04.846Z,29.20
2022-12-18T04:56:48.446Z,34.23
2022-12-18T04:59:16.501Z,28.23
2022-12-18T05:01:48.356Z,32.80
2022-12-18T05:04:25.068Z,28.70
2022-12-18T05:06:55.974Z,25.20
2022-12-18T05:09:33.166Z,36.27
2022-12-18T05:12:10.404Z,26.73
2022-12-18T05:14:41.300Z,31.07
2022-12-18T05:17:23.459Z,29.93
2022-12-18T05:19:58.449Z,27.23
2022-12-18T05:22:42.090Z,31.50
2022-12-18T05:25:19.120Z,29.50
2022-12-18T05:27:51.431Z,28.37
2022-12-18T05:30:32.073Z,25.93
2022-12-18T05:33:08.487Z,31.80
2022-12-18T05:35:43.565Z,32.87
2022-12-18T05:38:22.175Z,32.97
2022-12-18T05:40:58.723Z,27.30
2022-12-18T05:43:39.748Z,28.90
2022-12-18T05:46:17.236Z,31.87
2022-12-18T05:48:51.748Z,26.37
2022-12-18T05:51:28.214Z,29.27
2022-12-18T05:54:00.157Z,27.57
2022-12-18T05:56:48.522Z,22.23
2022-12-18T05:59:17.443Z,24.43
2022-12-18T06:01:53.947Z,24.27
2022-12-18T06:04:31.432Z,26.37
2022-12-18T06:07:09.266Z,23.73
2022-12-18T06:09:43.591Z,27.70
2022-12-18T06:12:13.255Z,26.60
2022-12-18T06:14:42.716Z,24.73
2022-12-18T06:17:11.848Z,28.40
2022-12-18T06:19:43.679Z,26.77
2022-12-18T06:22:21.905Z,28.13
2022-12-18T06:24:54.075Z,27.97
2022-12-18T06:27:26.126Z,28.70
2022-12-18T06:30:02.626Z,28.10
2022-12-18T06:32:46.651Z,26.27
2022-12-18T06:35:27.422Z,29.83
2022-12-18T06:37:58.086Z,26.33
2022-12-18T06:40:34.167Z,26.70
2022-12-18T06:43:03.469Z,36.03
2022-12-18T06:45:42.031Z,33.00
2022-12-18T06:48:13.420Z,31.30
2022-12-18T06:50:49.465Z,29.53
2022-12-18T06:53:18.639Z,30.90
2022-12-18T06:55:57.578Z,34.20
2022-12-18T06:58:27.746Z,37.13
2022-12-18T07:00:58.458Z,32.20
2022-12-18T07:03:30.032Z,35.43
2022-12-18T07:06:00.959Z,34.50
2022-12-18T07:08:32.109Z,32.07
2022-12-18T07:11:15.093Z,33.20
2022-12-18T07:13:46.790Z,35.27
2022-12-18T07:16:24.701Z,34.13
2022-12-18T07:19:02.008Z,37.17
2022-12-18T07:21:32.525Z,32.90
2022-12-18T07:24:01.663Z,40.00
2022-12-18T07:26:38.787Z,37.57
2022-12-18T07:29:16.156Z,35.80
2022-12-18T07:31:52.083Z,39.93
2022-12-18T07:34:30.208Z,37.53
2022-12-18T07:36:59.236Z,34.33
2022-12-18T07:39:33.344Z,31.47
2022-12-18T07:42:22.514Z,35.43
2022-12-18T07:44:59.759Z,32.00
2022-12-18T07:47:34.348Z,33.20
2022-12-18T07:50:08.997Z,38.80
2022-12-18T07:52:39.399Z,33.13
2022-12-18T07:55:11.230Z,33.13
2022-12-18T07:57:54.345Z,33.23
2022-12-18T08:00:32.461Z,37.90
2022-12-18T08:03:07.833Z,33.80
2022-12-18T08:05:38.822Z,34.77
2022-12-18T08:08:08.753Z,37.23
2022-12-18T08:10:49.386Z,38.60
2022-12-18T08:13:26.964Z,35.33
2022-12-18T08:16:09.704Z,33.10
2022-12-18T08:18:43.010Z,35.17
2022-12-18T08:21:22.171Z,31.60
2022-12-18T08:23:53.980Z,34.87
2022-12-18T08:26:25.912Z,37.60
2022-12-18T08:28:56.989Z,35.83
2022-12-18T08:31:28.389Z,39.50
2022-12-18T08:34:00.116Z,36.70
2022-12-18T08:36:44.373Z,35.53
2022-12-18T08:39:13.908Z,36.20
2022-12-18T08:41:43.357Z,36.10
2022-12-18T08:44:32.677Z,34.47
2022-12-18T08:47:01.437Z,43.87
2022-12-18T08:49:34.442Z,45.43
2022-12-18T08:52:03.960Z,38.93
2022-12-18T08:54:34.844Z,33.70
2022-12-18T08:57:05.507Z,43.33
2022-12-18T08:59:42.292Z,35.97
2022-12-18T09:02:14.464Z,38.60
2022-12-18T09:04:46.909Z,44.00
2022-12-18T09:07:22.103Z,41.67
2022-12-18T09:10:03.559Z,43.00
2022-12-18T09:12:34.496Z,45.43
2022-12-18T09:15:12.442Z,47.63
2022-12-18T09:17:48.153Z,40.67
2022-12-18T09:20:18.896Z,37.10
2022-12-18T09:22:55.646Z,40.50
2022-12-18T09:25:35.442Z,43.97
2022-12-18T09:28:07.339Z,54.40
2022-12-18T09:30:49.109Z,42.40
2022-12-18T09:33:23.190Z,40.67
2022-12-18T09:35:53.671Z,43.10
2022-12-18T09:38:34.526Z,44.10
2022-12-18T09:41:15.780Z,43.03
2022-12-18T09:43:57.569Z,42.67
2022-12-18T09:46:38.199Z,43.80
2022-12-18T09:49:12.604Z,47.57
2022-12-18T09:51:45.632Z,46.93
2022-12-18T09:54:21.736Z,45.03
2022-12-18T09:57:00.374Z,42.03
2022-12-18T09:59:42.317Z,48.00
2022-12-18T10:02:25.739Z,43.03
2022-12-18T10:05:10.896Z,39.57
2022-12-18T10:07:53.309Z,40.77
2022-12-18T10:10:46.336Z,40.33
2022-12-18T10:16:36.937Z,38.90
2022-12-18T10:19:30.713Z,39.83
2022-12-18T10:22:06.222Z,43.87
2022-12-18T10:24:37.547Z,40.33
2022-12-18T10:27:15.694Z,42.17
2022-12-18T10:29:44.444Z,42.40
2022-12-18T10:32:16.792Z,37.30
2022-12-18T10:34:48.791Z,45.83
2022-12-18T10:37:19.569Z,40.57
2022-12-18T10:39:47.799Z,41.73
2022-12-18T10:42:20.162Z,34.43
2022-12-18T10:44:48.158Z,41.20
2022-12-18T10:47:18.085Z,38.40
2022-12-18T10:49:54.074Z,36.93
2022-12-18T10:52:24.126Z,40.13
2022-12-18T10:54:59.251Z,43.17
2022-12-18T10:57:37.056Z,44.13
2022-12-18T11:00:24.412Z,43.40
2022-12-18T11:02:52.784Z,42.87
2022-12-18T11:05:33.959Z,53.93
2022-12-18T11:08:02.670Z,51.20
2022-12-18T11:10:33.146Z,44.33
2022-12-18T11:13:12.966Z,47.90
2022-12-18T11:15:42.689Z,48.83
2022-12-18T11:18:19.045Z,38.30
2022-12-18T11:20:58.523Z,36.43
2022-12-18T11:23:27.725Z,50.90
2022-12-18T11:26:00.283Z,37.60
2022-12-18T11:28:31.707Z,42.17
2022-12-18T11:31:19.632Z,41.20
2022-12-18T11:34:19.773Z,44.90
2022-12-18T11:36:41.701Z,35.23
2022-12-18T11:39:14.542Z,43.00
2022-12-18T11:42:06.513Z,40.17
2022-12-18T11:44:40.838Z,44.00
2022-12-18T11:47:15.321Z,44.40
2022-12-18T11:49:43.992Z,42.77
2022-12-18T11:52:18.858Z,37.40
2022-12-18T11:54:47.014Z,41.67
2022-12-18T11:57:22.214Z,40.37
2022-12-18T11:59:54.584Z,38.23
2022-12-18T12:02:34.860Z,45.67
2022-12-18T12:05:23.318Z,43.37
2022-12-18T12:07:58.701Z,42.10
2022-12-18T12:10:36.236Z,43.20
2022-12-18T12:13:18.064Z,42.17
2022-12-18T12:15:54.114Z,38.43
2022-12-18T12:18:28.133Z,41.40
2022-12-18T12:21:02.318Z,44.50
2022-12-18T12:23:39.643Z,45.53
2022-12-18T12:26:09.840Z,47.63
2022-12-18T12:29:00.704Z,40.93
2022-12-18T12:31:41.394Z,45.10
2022-12-18T12:34:15.051Z,48.50
2022-12-18T12:36:55.390Z,46.57
2022-12-18T12:39:29.524Z,38.00
2022-12-18T12:42:15.401Z,36.50
2022-12-18T12:44:49.098Z,42.30
2022-12-18T12:47:27.806Z,41.67
2022-12-18T12:49:56.778Z,41.93
2022-12-18T12:52:30.890Z,42.23
2022-12-18T12:55:00.804Z,40.63
2022-12-18T12:57:34.887Z,42.00
2022-12-18T13:00:05.855Z,45.07
2022-12-18T13:02:39.638Z,44.93
2022-12-18T13:05:15.695Z,44.60
2022-12-18T13:07:50.125Z,48.53
2022-12-18T13:10:43.832Z,46.37
2022-12-18T13:13:13.382Z,49.00
2022-12-18T13:15:44.308Z,42.23
2022-12-18T13:18:17.197Z,44.13
2022-12-18T13:20:53.161Z,40.47
2022-12-18T13:23:30.715Z,40.80
2022-12-18T13:26:01.553Z,44.27
2022-12-18T13:28:54.227Z,43.57
2022-12-18T13:32:10.283Z,48.07
2022-12-18T13:34:38.655Z,48.10
2022-12-18T13:37:44.070Z,46.87
2022-12-18T13:40:55.098Z,41.80
2022-12-18T13:43:32.909Z,45.77
2022-12-18T13:46:23.581Z,51.20
2022-12-18T13:48:56.125Z,46.63
2022-12-18T13:51:24.857Z,51.87
2022-12-18T13:53:54.224Z,43.37
2022-12-18T13:56:25.572Z,51.90
2022-12-18T13:59:23.254Z,50.47
2022-12-18T14:01:55.962Z,53.77
2022-12-18T14:04:27.553Z,52.97
2022-12-18T14:06:58.724Z,48.30
2022-12-18T14:09:29.707Z,43.80
2022-12-18T14:12:19.437Z,50.40
2022-12-18T14:14:53.112Z,47.10
2022-12-18T14:17:25.019Z,47.33
2022-12-18T14:19:53.744Z,53.87
2022-12-18T14:22:22.930Z,51.80
2022-12-18T14:25:08.920Z,49.47
2022-12-18T14:27:40.021Z,55.83
2022-12-18T14:30:26.467Z,59.60
2022-12-18T14:33:02.970Z,54.83
2022-12-18T14:35:32.436Z,65.97
2022-12-18T14:38:24.361Z,61.00
2022-12-18T14:41:00.419Z,56.63
2022-12-18T14:43:31.364Z,68.67
2022-12-18T14:46:01.546Z,54.50
2022-12-18T14:48:38.941Z,62.33
2022-12-18T14:51:09.241Z,58.77
2022-12-18T14:53:42.578Z,75.40
2022-12-18T14:56:41.782Z,64.30
2022-12-18T14:59:24.680Z,58.23
2022-12-18T15:02:14.814Z,70.07
2022-12-18T15:05:12.879Z,60.40
2022-12-18T15:07:48.753Z,66.87
2022-12-18T15:10:32.134Z,61.77
2022-12-18T15:13:31.781Z,56.67
2022-12-18T15:16:18.039Z,66.40
2022-12-18T15:19:01.625Z,65.50
2022-12-18T15:21:35.440Z,63.83
2022-12-18T15:24:17.970Z,58.67
2022-12-18T15:26:56.020Z,61.67
2022-12-18T15:29:38.641Z,59.20
2022-12-18T15:32:25.961Z,54.53
2022-12-18T15:35:21.750Z,63.83
2022-12-18T15:37:54.885Z,67.07
2022-12-18T15:40:30.081Z,64.40
2022-12-18T15:43:15.885Z,56.90
2022-12-18T15:45:47.598Z,57.07
2022-12-18T15:48:32.827Z,57.90
2022-12-18T15:51:37.344Z,59.40
2022-12-18T15:54:45.628Z,55.30
2022-12-18T15:57:29.454Z,55.93
2022-12-18T16:00:15.798Z,57.93
2022-12-18T16:02:54.648Z,62.27
2022-12-18T16:05:39.816Z,64.60
2022-12-18T16:08:12.814Z,58.10
2022-12-18T16:10:54.874Z,53.67
2022-12-18T16:13:31.309Z,64.03
2022-12-18T16:16:15.039Z,70.40
2022-12-18T16:24:46.854Z,55.17
2022-12-18T16:27:27.211Z,56.83
2022-12-18T16:30:06.745Z,52.43
2022-12-18T16:32:39.575Z,50.43
2022-12-18T16:35:23.155Z,49.30
2022-12-18T16:37:59.127Z,52.53
2022-12-18T16:41:09.922Z,49.30
2022-12-18T16:43:54.959Z,49.73
2022-12-18T16:46:33.808Z,42.63
2022-12-18T16:49:20.986Z,48.67
2022-12-18T16:51:54.057Z,50.10
2022-12-18T16:54:30.357Z,46.40
2022-12-18T16:57:09.373Z,43.43
2022-12-18T16:59:56.030Z,48.83
2022-12-18T17:02:30.370Z,47.00
2022-12-18T17:05:08.740Z,45.70
2022-12-18T17:07:48.155Z,39.83
2022-12-18T17:10:27.041Z,42.43
2022-12-18T17:13:25.911Z,50.50
2022-12-18T17:16:23.753Z,71.90
2022-12-18T17:19:03.609Z,130.13
2022-12-18T17:21:35.984Z,89.67
2022-12-18T17:24:12.525Z,92.47
2022-12-18T17:26:52.121Z,85.33
2022-12-18T17:29:32.856Z,67.17
2022-12-18T17:35:07.526Z,53.03
2022-12-18T17:38:04.577Z,51.40
2022-12-18T17:40:36.277Z,47.30
2022-12-18T17:43:26.640Z,43.57
2022-12-18T17:46:13.337Z,43.50
2022-12-18T17:48:59.354Z,41.40
2022-12-18T17:51:39.201Z,42.70
2022-12-18T17:54:16.419Z,46.97
2022-12-18T17:56:49.570Z,45.57
2022-12-18T17:59:28.237Z,42.53
2022-12-18T18:02:03.934Z,44.13
2022-12-18T18:04:43.166Z,53.33
2022-12-18T18:07:30.310Z,49.33
2022-12-18T18:10:12.734Z,49.00
2022-12-18T18:13:01.725Z,53.87
2022-12-18T18:15:43.328Z,46.07
2022-12-18T18:18:28.692Z,49.07
2022-12-18T18:21:01.077Z,49.00
2022-12-18T18:23:42.477Z,46.33
2022-12-18T18:26:19.206Z,55.70
2022-12-18T18:28:55.526Z,48.17
2022-12-18T18:31:33.623Z,45.43
2022-12-18T18:34:14.580Z,47.87
2022-12-18T18:36:45.602Z,48.00
2022-12-18T18:39:15.614Z,48.87
2022-12-18T18:41:48.672Z,39.57
2022-12-18T18:44:29.624Z,38.77
2022-12-18T18:47:24.673Z,30.70
2022-12-18T18:50:09.026Z,33.87
2022-12-18T18:52:44.595Z,34.03
2022-12-18T18:55:32.694Z,38.00
2022-12-18T18:58:11.326Z,35.10
2022-12-18T19:00:49.114Z,32.43
2022-12-18T19:03:24.753Z,34.03
2022-12-18T19:06:07.297Z,34.07
2022-12-18T19:08:38.141Z,35.30
2022-12-18T19:11:36.205Z,35.57
2022-12-18T19:14:15.122Z,38.13
2022-12-18T19:16:54.684Z,39.17
2022-12-18T19:19:33.894Z,35.30
2022-12-18T19:22:09.841Z,39.37
2022-12-18T19:24:43.079Z,38.00
2022-12-18T19:27:23.423Z,38.27
2022-12-18T19:30:02.145Z,37.97
2022-12-18T19:32:34.386Z,39.00
2022-12-18T19:35:13.300Z,36.40
2022-12-18T19:37:58.283Z,37.40
2022-12-18T19:40:35.785Z,40.47
2022-12-18T19:43:18.515Z,34.53
2022-12-18T19:45:51.923Z,37.40
2022-12-18T19:48:34.819Z,45.17
2022-12-18T19:51:20.577Z,41.80
2022-12-18T19:53:59.893Z,37.30
2022-12-18T19:56:53.653Z,40.47
2022-12-18T19:59:27.489Z,40.33
2022-12-18T20:02:00.212Z,36.10
2022-12-18T20:04:35.439Z,40.47
2022-12-18T20:07:06.518Z,38.27
2022-12-18T20:10:02.627Z,37.17
2022-12-18T20:12:46.814Z,40.13
2022-12-18T20:15:22.972Z,42.27
2022-12-18T20:18:11.221Z,36.90
2022-12-18T20:20:50.349Z,40.93
2022-12-18T20:23:23.228Z,38.37
2022-12-18T20:26:27.576Z,40.20
2022-12-18T20:29:04.121Z,43.57
2022-12-18T20:31:36.741Z,38.17
2022-12-18T20:34:11.857Z,39.57
2022-12-18T20:36:42.557Z,41.37
2022-12-18T20:39:20.739Z,40.10
2022-12-18T20:42:01.879Z,44.17
2022-12-18T20:44:34.348Z,37.40
2022-12-18T20:47:10.523Z,38.90
2022-12-18T20:49:45.327Z,42.93
2022-12-18T20:52:19.042Z,42.77
2022-12-18T20:54:49.578Z,41.53
2022-12-18T20:57:20.923Z,41.53
2022-12-18T20:59:52.800Z,46.00
2022-12-18T21:02:30.788Z,39.90
2022-12-18T21:05:04.304Z,45.23
2022-12-18T21:07:34.812Z,44.17
2022-12-18T21:10:08.297Z,46.17
2022-12-18T21:12:58.871Z,45.37
2022-12-18T21:15:34.482Z,45.13
2022-12-18T21:18:09.197Z,47.83
2022-12-18T21:20:38.413Z,44.00
2022-12-18T21:23:21.919Z,43.40
2022-12-18T21:25:56.061Z,43.60
2022-12-18T21:28:28.619Z,40.10
2022-12-18T21:31:01.036Z,43.40
2022-12-18T21:33:32.821Z,47.37
2022-12-18T21:36:04.903Z,42.60
2022-12-18T21:38:32.972Z,39.00
2022-12-18T21:41:01.109Z,42.27
2022-12-18T21:43:54.844Z,48.20
2022-12-18T21:46:31.618Z,43.60
2022-12-18T21:49:05.615Z,41.23
2022-12-18T21:51:38.169Z,45.13
2022-12-18T21:54:10.474Z,45.93
2022-12-18T21:56:57.408Z,47.40
2022-12-18T21:59:35.363Z,45.23
2022-12-18T22:02:14.786Z,43.90
2022-12-18T22:04:47.205Z,42.73
2022-12-18T22:07:16.935Z,44.30
2022-12-18T22:09:50.940Z,44.17
2022-12-18T22:12:44.488Z,43.70
2022-12-18T22:15:25.850Z,48.33
2022-12-18T22:17:59.519Z,49.80
2022-12-18T22:20:35.632Z,42.63
2022-12-18T22:23:15.651Z,45.00
2022-12-18T22:25:51.259Z,46.93
2022-12-18T22:28:40.721Z,43.00
2022-12-18T22:31:28.940Z,39.43
2022-12-18T22:34:06.975Z,45.90
2022-12-18T22:36:41.372Z,40.23
2022-12-18T22:39:21.394Z,47.37
2022-12-18T22:41:54.083Z,44.50
2022-12-18T22:44:26.529Z,42.83
2022-12-18T22:47:08.343Z,43.80
2022-12-18T22:49:39.173Z,47.00
2022-12-18T22:52:15.272Z,36.20
2022-12-18T22:54:48.679Z,42.57
2022-12-18T22:57:22.642Z,39.60
2022-12-18T22:59:55.273Z,39.37
2022-12-18T23:02:27.224Z,43.20
2022-12-18T23:04:57.957Z,48.37
2022-12-18T23:07:31.280Z,46.20
2022-12-18T23:10:08.038Z,42.00
2022-12-18T23:12:43.174Z,44.53
2022-12-18T23:15:17.810Z,46.67
2022-12-18T23:18:02.960Z,41.37
2022-12-18T23:20:39.753Z,42.33
2022-12-18T23:23:11.389Z,38.17
2022-12-18T23:25:50.142Z,46.93
2022-12-18T23:28:22.023Z,40.00
2022-12-18T23:30:53.005Z,40.83
2022-12-18T23:33:25.430Z,41.70
2022-12-18T23:36:03.476Z,39.77
2022-12-18T23:38:40.978Z,41.67
2022-12-18T23:41:11.975Z,40.67
2022-12-18T23:43:46.615Z,43.30
2022-12-18T23:46:20.677Z,37.90
2022-12-18T23:48:54.607Z,41.13
2022-12-18T23:51:34.659Z,39.47
2022-12-18T23:54:13.036Z,36.20
2022-12-18T23:56:44.845Z,39.53
2022-12-18T23:59:24.019Z,36.70
